sensor_id;sensor_type;location;lat;lon;timestamp;pressure;altitude;pressure_sealevel;temperature;humidity
52441;BME280;39611;46.062;8.950;2023-04-05T00:02:09;96481.13;;;6.94;47.13
52441;BME280;39611;46.062;8.950;2023-04-05T00:04:36;96494.81;;;6.96;47.16
52441;BME280;39611;46.062;8.950;2023-04-05T00:07:04;96493.69;;;6.87;47.55
52441;BME280;39611;46.062;8.950;2023-04-05T00:09:33;96498.31;;;6.79;47.81
52441;BME280;39611;46.062;8.950;2023-04-05T00:11:59;96495.69;;;6.79;47.58
52441;BME280;39611;46.062;8.950;2023-04-05T00:14:26;96501.16;;;6.73;47.68
52441;BME280;39611;46.062;8.950;2023-04-05T00:16:53;96493.47;;;6.66;47.97
52441;BME280;39611;46.062;8.950;2023-04-05T00:19:19;96492.34;;;6.57;48.12
52441;BME280;39611;46.062;8.950;2023-04-05T00:21:48;96495.50;;;6.59;47.64
52441;BME280;39611;46.062;8.950;2023-04-05T00:24:15;96490.66;;;6.51;48.08
52441;BME280;39611;46.062;8.950;2023-04-05T00:26:41;96498.75;;;6.44;48.25
52441;BME280;39611;46.062;8.950;2023-04-05T00:29:09;96494.00;;;6.41;48.19
52441;BME280;39611;46.062;8.950;2023-04-05T00:31:36;96494.91;;;6.52;47.92
52441;BME280;39611;46.062;8.950;2023-04-05T00:34:02;96496.38;;;6.43;48.26
52441;BME280;39611;46.062;8.950;2023-04-05T00:36:31;96495.81;;;6.41;47.78
52441;BME280;39611;46.062;8.950;2023-04-05T00:38:57;96490.63;;;6.46;47.40
52441;BME280;39611;46.062;8.950;2023-04-05T00:41:23;96499.16;;;6.58;47.21
52441;BME280;39611;46.062;8.950;2023-04-05T00:43:50;96502.34;;;6.60;46.82
52441;BME280;39611;46.062;8.950;2023-04-05T00:46:17;96500.78;;;6.59;48.10
52441;BME280;39611;46.062;8.950;2023-04-05T00:48:44;96502.06;;;6.56;48.83
52441;BME280;39611;46.062;8.950;2023-04-05T00:51:11;96495.88;;;6.46;47.33
52441;BME280;39611;46.062;8.950;2023-04-05T00:53:38;96491.97;;;6.48;46.62
52441;BME280;39611;46.062;8.950;2023-04-05T00:56:06;96499.53;;;6.45;46.90
52441;BME280;39611;46.062;8.950;2023-04-05T00:58:33;96494.22;;;6.40;46.80
52441;BME280;39611;46.062;8.950;2023-04-05T01:01:09;96494.53;;;6.43;46.37
52441;BME280;39611;46.062;8.950;2023-04-05T01:03:45;96493.25;;;6.46;45.89
52441;BME280;39611;46.062;8.950;2023-04-05T01:06:21;96478.22;;;6.41;46.08
52441;BME280;39611;46.062;8.950;2023-04-05T01:09:13;96493.88;;;6.31;46.21
52441;BME280;39611;46.062;8.950;2023-04-05T01:11:44;96491.59;;;6.40;46.56
52441;BME280;39611;46.062;8.950;2023-04-05T01:14:11;96491.00;;;6.32;45.76
52441;BME280;39611;46.062;8.950;2023-04-05T01:16:37;96490.56;;;6.19;46.34
52441;BME280;39611;46.062;8.950;2023-04-05T01:19:04;96496.44;;;6.26;45.47
52441;BME280;39611;46.062;8.950;2023-04-05T01:24:30;96497.28;;;6.31;45.23
52441;BME280;39611;46.062;8.950;2023-04-05T01:27:06;96493.09;;;6.30;44.78
52441;BME280;39611;46.062;8.950;2023-04-05T01:29:44;96501.03;;;6.36;45.03
52441;BME280;39611;46.062;8.950;2023-04-05T01:32:54;96505.66;;;6.28;45.06
52441;BME280;39611;46.062;8.950;2023-04-05T01:35:24;96497.72;;;6.23;45.02
52441;BME280;39611;46.062;8.950;2023-04-05T01:37:59;96504.25;;;6.21;44.84
52441;BME280;39611;46.062;8.950;2023-04-05T01:40:27;96500.16;;;6.30;46.06
52441;BME280;39611;46.062;8.950;2023-04-05T01:42:55;96503.47;;;6.20;47.82
52441;BME280;39611;46.062;8.950;2023-04-05T01:45:21;96502.72;;;6.03;48.16
52441;BME280;39611;46.062;8.950;2023-04-05T01:47:47;96502.25;;;5.89;48.73
52441;BME280;39611;46.062;8.950;2023-04-05T01:50:14;96510.84;;;5.84;49.64
52441;BME280;39611;46.062;8.950;2023-04-05T01:52:40;96504.88;;;5.89;49.40
52441;BME280;39611;46.062;8.950;2023-04-05T01:55:07;96505.34;;;5.86;49.68
52441;BME280;39611;46.062;8.950;2023-04-05T01:57:34;96514.97;;;5.80;49.63
52441;BME280;39611;46.062;8.950;2023-04-05T02:00:00;96512.75;;;5.72;49.78
52441;BME280;39611;46.062;8.950;2023-04-05T02:02:27;96514.03;;;5.69;49.77
52441;BME280;39611;46.062;8.950;2023-04-05T02:04:53;96517.28;;;5.60;49.80
52441;BME280;39611;46.062;8.950;2023-04-05T02:07:20;96510.69;;;5.57;50.09
52441;BME280;39611;46.062;8.950;2023-04-05T02:09:46;96505.22;;;5.59;49.91
52441;BME280;39611;46.062;8.950;2023-04-05T02:12:12;96510.38;;;5.54;50.18
52441;BME280;39611;46.062;8.950;2023-04-05T02:14:39;96507.22;;;5.52;49.84
52441;BME280;39611;46.062;8.950;2023-04-05T02:17:05;96507.22;;;5.52;49.51
52441;BME280;39611;46.062;8.950;2023-04-05T02:19:32;96507.53;;;5.55;49.80
52441;BME280;39611;46.062;8.950;2023-04-05T02:22:07;96506.41;;;5.51;50.02
52441;BME280;39611;46.062;8.950;2023-04-05T02:24:33;96505.38;;;5.52;50.47
52441;BME280;39611;46.062;8.950;2023-04-05T02:27:00;96505.72;;;5.56;49.93
52441;BME280;39611;46.062;8.950;2023-04-05T02:29:28;96506.66;;;5.50;49.60
52441;BME280;39611;46.062;8.950;2023-04-05T02:31:54;96501.88;;;5.46;49.43
52441;BME280;39611;46.062;8.950;2023-04-05T02:34:21;96511.44;;;5.53;48.89
52441;BME280;39611;46.062;8.950;2023-04-05T02:36:49;96512.75;;;5.72;48.29
52441;BME280;39611;46.062;8.950;2023-04-05T02:39:16;96502.09;;;5.79;47.86
52441;BME280;39611;46.062;8.950;2023-04-05T02:41:43;96501.53;;;5.77;47.42
52441;BME280;39611;46.062;8.950;2023-04-05T02:44:10;96505.84;;;5.66;48.55
52441;BME280;39611;46.062;8.950;2023-04-05T02:46:36;96503.75;;;5.68;49.09
52441;BME280;39611;46.062;8.950;2023-04-05T02:49:03;96501.22;;;5.73;48.48
52441;BME280;39611;46.062;8.950;2023-04-05T02:51:29;96506.28;;;5.58;48.35
52441;BME280;39611;46.062;8.950;2023-04-05T02:53:55;96509.91;;;5.57;48.01
52441;BME280;39611;46.062;8.950;2023-04-05T02:56:22;96496.22;;;5.72;47.58
52441;BME280;39611;46.062;8.950;2023-04-05T02:58:48;96505.47;;;5.40;47.91
52441;BME280;39611;46.062;8.950;2023-04-05T03:01:15;96501.97;;;5.52;47.82
52441;BME280;39611;46.062;8.950;2023-04-05T03:03:42;96502.94;;;5.45;48.06
52441;BME280;39611;46.062;8.950;2023-04-05T03:06:09;96508.09;;;5.40;48.10
52441;BME280;39611;46.062;8.950;2023-04-05T03:08:40;96506.34;;;5.46;49.29
52441;BME280;39611;46.062;8.950;2023-04-05T03:11:12;96510.22;;;5.43;49.34
52441;BME280;39611;46.062;8.950;2023-04-05T03:13:38;96515.56;;;5.48;48.53
52441;BME280;39611;46.062;8.950;2023-04-05T03:16:05;96515.31;;;5.33;49.63
52441;BME280;39611;46.062;8.950;2023-04-05T03:18:32;96513.09;;;5.25;50.04
52441;BME280;39611;46.062;8.950;2023-04-05T03:20:58;96514.19;;;5.29;49.84
52441;BME280;39611;46.062;8.950;2023-04-05T03:23:27;96511.56;;;5.29;49.43
52441;BME280;39611;46.062;8.950;2023-04-05T03:25:58;96513.66;;;5.27;49.65
52441;BME280;39611;46.062;8.950;2023-04-05T03:28:25;96507.84;;;5.25;49.72
52441;BME280;39611;46.062;8.950;2023-04-05T03:30:51;96511.50;;;5.24;49.71
52441;BME280;39611;46.062;8.950;2023-04-05T03:33:18;96512.69;;;5.16;50.40
52441;BME280;39611;46.062;8.950;2023-04-05T03:35:46;96513.50;;;5.17;50.44
52441;BME280;39611;46.062;8.950;2023-04-05T03:38:13;96512.78;;;5.21;50.23
52441;BME280;39611;46.062;8.950;2023-04-05T03:40:39;96513.22;;;5.18;50.63
52441;BME280;39611;46.062;8.950;2023-04-05T03:43:06;96511.56;;;5.12;51.08
52441;BME280;39611;46.062;8.950;2023-04-05T03:45:32;96506.63;;;5.16;50.75
52441;BME280;39611;46.062;8.950;2023-04-05T03:47:59;96504.00;;;5.16;50.80
52441;BME280;39611;46.062;8.950;2023-04-05T03:50:26;96514.97;;;5.13;51.04
52441;BME280;39611;46.062;8.950;2023-04-05T03:52:52;96503.84;;;5.06;51.69
52441;BME280;39611;46.062;8.950;2023-04-05T03:55:19;96500.03;;;5.13;51.21
52441;BME280;39611;46.062;8.950;2023-04-05T03:57:46;96495.34;;;5.15;51.51
52441;BME280;39611;46.062;8.950;2023-04-05T04:00:12;96500.38;;;5.17;52.38
52441;BME280;39611;46.062;8.950;2023-04-05T04:02:44;96498.78;;;5.16;52.31
52441;BME280;39611;46.062;8.950;2023-04-05T04:05:11;96499.41;;;5.23;51.74
52441;BME280;39611;46.062;8.950;2023-04-05T04:07:38;96502.28;;;5.21;52.55
52441;BME280;39611;46.062;8.950;2023-04-05T04:10:05;96505.13;;;5.20;52.66
52441;BME280;39611;46.062;8.950;2023-04-05T04:12:31;96498.94;;;5.26;51.19
52441;BME280;39611;46.062;8.950;2023-04-05T04:14:58;96490.84;;;5.28;50.42
52441;BME280;39611;46.062;8.950;2023-04-05T04:17:29;96499.19;;;5.41;49.67
52441;BME280;39611;46.062;8.950;2023-04-05T04:19:57;96496.25;;;5.38;50.06
52441;BME280;39611;46.062;8.950;2023-04-05T04:22:24;96500.22;;;5.40;50.03
52441;BME280;39611;46.062;8.950;2023-04-05T04:24:59;96493.38;;;5.39;49.46
52441;BME280;39611;46.062;8.950;2023-04-05T04:27:30;96487.19;;;5.45;50.46
52441;BME280;39611;46.062;8.950;2023-04-05T04:29:57;96494.72;;;5.42;52.18
52441;BME280;39611;46.062;8.950;2023-04-05T04:32:30;96488.38;;;5.38;52.27
52441;BME280;39611;46.062;8.950;2023-04-05T04:35:15;96488.47;;;5.43;52.29
52441;BME280;39611;46.062;8.950;2023-04-05T04:37:48;96484.47;;;5.40;52.28
52441;BME280;39611;46.062;8.950;2023-04-05T04:40:18;96488.38;;;5.38;51.91
52441;BME280;39611;46.062;8.950;2023-04-05T04:42:44;96486.31;;;5.40;51.66
52441;BME280;39611;46.062;8.950;2023-04-05T04:45:16;96485.28;;;5.41;52.14
52441;BME280;39611;46.062;8.950;2023-04-05T04:47:47;96486.31;;;5.40;52.22
52441;BME280;39611;46.062;8.950;2023-04-05T04:50:15;96478.03;;;5.31;52.99
52441;BME280;39611;46.062;8.950;2023-04-05T04:52:41;96488.59;;;5.36;51.79
52441;BME280;39611;46.062;8.950;2023-04-05T04:55:08;96481.31;;;5.38;52.54
52441;BME280;39611;46.062;8.950;2023-04-05T04:57:35;96484.00;;;5.26;52.77
52441;BME280;39611;46.062;8.950;2023-04-05T05:00:02;96480.84;;;5.24;53.25
52441;BME280;39611;46.062;8.950;2023-04-05T05:02:33;96479.47;;;5.22;52.42
52441;BME280;39611;46.062;8.950;2023-04-05T05:04:59;96483.75;;;5.28;51.61
52441;BME280;39611;46.062;8.950;2023-04-05T05:07:26;96486.22;;;5.18;52.88
52441;BME280;39611;46.062;8.950;2023-04-05T05:09:52;96486.69;;;5.15;52.48
52441;BME280;39611;46.062;8.950;2023-04-05T05:12:20;96490.91;;;5.33;52.40
52441;BME280;39611;46.062;8.950;2023-04-05T05:14:47;96484.88;;;5.32;53.80
52441;BME280;39611;46.062;8.950;2023-04-05T05:17:13;96502.75;;;5.35;52.90
52441;BME280;39611;46.062;8.950;2023-04-05T05:19:40;96494.00;;;5.46;51.61
52441;BME280;39611;46.062;8.950;2023-04-05T05:22:06;96489.63;;;5.52;51.65
52441;BME280;39611;46.062;8.950;2023-04-05T05:24:33;96495.91;;;5.51;50.71
52441;BME280;39611;46.062;8.950;2023-04-05T05:26:59;96491.47;;;5.52;50.68
52441;BME280;39611;46.062;8.950;2023-04-05T05:29:26;96489.88;;;5.51;49.22
52441;BME280;39611;46.062;8.950;2023-04-05T05:31:52;96495.28;;;5.61;49.62
52441;BME280;39611;46.062;8.950;2023-04-05T05:34:18;96496.88;;;5.62;49.57
52441;BME280;39611;46.062;8.950;2023-04-05T05:36:45;96505.28;;;5.64;49.80
52441;BME280;39611;46.062;8.950;2023-04-05T05:39:12;96501.81;;;5.58;50.31
52441;BME280;39611;46.062;8.950;2023-04-05T05:41:38;96504.19;;;5.60;49.69
52441;BME280;39611;46.062;8.950;2023-04-05T05:44:05;96501.41;;;5.66;51.08
52441;BME280;39611;46.062;8.950;2023-04-05T05:46:32;96502.81;;;5.74;50.51
52441;BME280;39611;46.062;8.950;2023-04-05T05:48:58;96499.06;;;5.70;50.21
52441;BME280;39611;46.062;8.950;2023-04-05T05:51:25;96497.50;;;5.69;49.58
52441;BME280;39611;46.062;8.950;2023-04-05T05:53:51;96496.44;;;5.70;49.41
52441;BME280;39611;46.062;8.950;2023-04-05T05:56:18;96500.56;;;5.83;50.15
52441;BME280;39611;46.062;8.950;2023-04-05T05:58:44;96496.03;;;5.78;51.00
52441;BME280;39611;46.062;8.950;2023-04-05T06:01:11;96497.81;;;5.73;51.83
52441;BME280;39611;46.062;8.950;2023-04-05T06:03:38;96507.03;;;5.75;51.11
52441;BME280;39611;46.062;8.950;2023-04-05T06:06:05;96516.50;;;5.76;50.38
52441;BME280;39611;46.062;8.950;2023-04-05T06:08:33;96512.38;;;5.63;49.96
52441;BME280;39611;46.062;8.950;2023-04-05T06:11:00;96514.78;;;5.48;50.11
52441;BME280;39611;46.062;8.950;2023-04-05T06:13:26;96513.09;;;5.59;49.68
52441;BME280;39611;46.062;8.950;2023-04-05T06:15:53;96509.72;;;5.80;51.16
52441;BME280;39611;46.062;8.950;2023-04-05T06:18:19;96516.03;;;5.79;52.39
52441;BME280;39611;46.062;8.950;2023-04-05T06:20:46;96521.50;;;5.78;52.82
52441;BME280;39611;46.062;8.950;2023-04-05T06:23:13;96522.84;;;5.80;52.49
52441;BME280;39611;46.062;8.950;2023-04-05T06:25:39;96515.59;;;5.87;53.06
52441;BME280;39611;46.062;8.950;2023-04-05T06:28:06;96517.06;;;5.95;52.65
52441;BME280;39611;46.062;8.950;2023-04-05T06:30:33;96524.28;;;5.88;50.87
52441;BME280;39611;46.062;8.950;2023-04-05T06:32:59;96518.00;;;5.89;48.82
52441;BME280;39611;46.062;8.950;2023-04-05T06:35:26;96524.75;;;6.02;49.62
52441;BME280;39611;46.062;8.950;2023-04-05T06:37:52;96517.69;;;6.24;49.52
52441;BME280;39611;46.062;8.950;2023-04-05T06:40:19;96518.94;;;6.39;50.26
52441;BME280;39611;46.062;8.950;2023-04-05T06:42:45;96517.88;;;6.40;51.00
52441;BME280;39611;46.062;8.950;2023-04-05T06:45:12;96514.38;;;6.56;48.56
52441;BME280;39611;46.062;8.950;2023-04-05T06:47:39;96522.31;;;6.61;49.22
52441;BME280;39611;46.062;8.950;2023-04-05T06:50:07;96516.84;;;6.63;49.13
52441;BME280;39611;46.062;8.950;2023-04-05T06:52:34;96514.56;;;6.71;49.52
52441;BME280;39611;46.062;8.950;2023-04-05T06:55:01;96507.81;;;6.81;48.97
52441;BME280;39611;46.062;8.950;2023-04-05T06:57:27;96512.88;;;6.87;48.35
52441;BME280;39611;46.062;8.950;2023-04-05T06:59:53;96510.78;;;6.89;48.41
52441;BME280;39611;46.062;8.950;2023-04-05T07:02:20;96514.22;;;6.90;48.08
52441;BME280;39611;46.062;8.950;2023-04-05T07:04:47;96510.66;;;7.01;47.45
52441;BME280;39611;46.062;8.950;2023-04-05T07:07:14;96506.69;;;7.31;46.71
52441;BME280;39611;46.062;8.950;2023-04-05T07:09:40;96508.03;;;7.65;46.55
52441;BME280;39611;46.062;8.950;2023-04-05T07:12:07;96494.50;;;7.94;45.55
52441;BME280;39611;46.062;8.950;2023-04-05T07:14:35;96503.34;;;8.20;45.20
52441;BME280;39611;46.062;8.950;2023-04-05T07:17:04;96496.59;;;8.40;45.24
52441;BME280;39611;46.062;8.950;2023-04-05T07:19:31;96491.09;;;8.51;44.10
52441;BME280;39611;46.062;8.950;2023-04-05T07:21:58;96497.50;;;8.81;42.95
52441;BME280;39611;46.062;8.950;2023-04-05T07:24:25;96495.94;;;8.90;40.49
52441;BME280;39611;46.062;8.950;2023-04-05T07:26:51;96498.09;;;9.04;40.57
52441;BME280;39611;46.062;8.950;2023-04-05T07:29:18;96494.91;;;9.07;39.73
52441;BME280;39611;46.062;8.950;2023-04-05T07:31:44;96499.13;;;9.13;40.29
52441;BME280;39611;46.062;8.950;2023-04-05T07:34:12;96498.88;;;9.19;40.93
52441;BME280;39611;46.062;8.950;2023-04-05T07:36:38;96498.63;;;9.36;41.19
52441;BME280;39611;46.062;8.950;2023-04-05T07:39:05;96500.75;;;9.39;40.49
52441;BME280;39611;46.062;8.950;2023-04-05T07:41:31;96505.75;;;9.31;39.88
52441;BME280;39611;46.062;8.950;2023-04-05T07:44:00;96504.19;;;9.30;39.21
52441;BME280;39611;46.062;8.950;2023-04-05T07:46:27;96501.78;;;9.18;40.14
52441;BME280;39611;46.062;8.950;2023-04-05T07:48:53;96501.28;;;9.16;40.01
52441;BME280;39611;46.062;8.950;2023-04-05T07:51:20;96501.78;;;9.13;40.54
52441;BME280;39611;46.062;8.950;2023-04-05T07:53:46;96506.53;;;9.01;41.40
52441;BME280;39611;46.062;8.950;2023-04-05T07:56:14;96503.59;;;8.92;40.49
52441;BME280;39611;46.062;8.950;2023-04-05T07:58:41;96495.66;;;8.87;41.49
52441;BME280;39611;46.062;8.950;2023-04-05T08:01:09;96495.16;;;8.85;41.60
52441;BME280;39611;46.062;8.950;2023-04-05T08:03:36;96489.03;;;8.69;41.18
52441;BME280;39611;46.062;8.950;2023-04-05T08:06:12;96494.00;;;8.55;40.89
52441;BME280;39611;46.062;8.950;2023-04-05T08:08:39;96489.53;;;8.61;41.68
52441;BME280;39611;46.062;8.950;2023-04-05T08:11:06;96486.94;;;8.71;42.43
52441;BME280;39611;46.062;8.950;2023-04-05T08:13:33;96486.38;;;8.69;42.19
52441;BME280;39611;46.062;8.950;2023-04-05T08:16:00;96490.63;;;8.65;41.77
52441;BME280;39611;46.062;8.950;2023-04-05T08:18:27;96495.63;;;8.71;41.77
52441;BME280;39611;46.062;8.950;2023-04-05T08:20:55;96493.28;;;8.75;42.05
52441;BME280;39611;46.062;8.950;2023-04-05T08:23:22;96489.34;;;8.78;40.64
52441;BME280;39611;46.062;8.950;2023-04-05T08:25:48;96495.38;;;8.73;40.86
52441;BME280;39611;46.062;8.950;2023-04-05T08:28:15;96490.63;;;8.70;41.17
52441;BME280;39611;46.062;8.950;2023-04-05T08:30:42;96487.97;;;8.65;40.17
52441;BME280;39611;46.062;8.950;2023-04-05T08:33:08;96483.22;;;8.57;38.66
52441;BME280;39611;46.062;8.950;2023-04-05T08:35:36;96483.97;;;8.47;38.83
52441;BME280;39611;46.062;8.950;2023-04-05T08:38:06;96484.25;;;8.56;38.71
52441;BME280;39611;46.062;8.950;2023-04-05T08:40:45;96490.63;;;8.65;38.24
52441;BME280;39611;46.062;8.950;2023-04-05T08:43:17;96485.34;;;8.65;38.82
52441;BME280;39611;46.062;8.950;2023-04-05T08:45:49;96486.38;;;8.64;38.44
52441;BME280;39611;46.062;8.950;2023-04-05T08:48:17;96485.88;;;8.67;39.03
52441;BME280;39611;46.062;8.950;2023-04-05T08:50:50;96484.84;;;8.78;39.52
52441;BME280;39611;46.062;8.950;2023-04-05T08:53:18;96488.81;;;8.86;38.30
52441;BME280;39611;46.062;8.950;2023-04-05T08:55:48;96479.56;;;8.78;37.59
52441;BME280;39611;46.062;8.950;2023-04-05T08:58:17;96484.06;;;8.83;38.32
52441;BME280;39611;46.062;8.950;2023-04-05T09:00:46;96480.66;;;8.98;38.30
52441;BME280;39611;46.062;8.950;2023-04-05T09:03:18;96479.06;;;8.96;37.48
52441;BME280;39611;46.062;8.950;2023-04-05T09:05:51;96480.94;;;9.01;38.21
52441;BME280;39611;46.062;8.950;2023-04-05T09:08:18;96484.38;;;9.12;38.21
52441;BME280;39611;46.062;8.950;2023-04-05T09:10:49;96477.78;;;9.14;37.92
52441;BME280;39611;46.062;8.950;2023-04-05T09:13:19;96480.66;;;9.18;37.73
52441;BME280;39611;46.062;8.950;2023-04-05T09:15:45;96487.25;;;9.26;36.93
52441;BME280;39611;46.062;8.950;2023-04-05T09:18:12;96484.34;;;9.07;35.99
52441;BME280;39611;46.062;8.950;2023-04-05T09:21:04;96477.50;;;9.11;36.68
52441;BME280;39611;46.062;8.950;2023-04-05T09:23:35;96477.53;;;9.26;38.16
52441;BME280;39611;46.062;8.950;2023-04-05T09:26:22;96478.03;;;9.33;37.66
52441;BME280;39611;46.062;8.950;2023-04-05T09:28:49;96470.94;;;9.29;36.73
52441;BME280;39611;46.062;8.950;2023-04-05T09:31:32;96466.44;;;9.34;37.28
52441;BME280;39611;46.062;8.950;2023-04-05T09:34:03;96461.16;;;9.29;36.11
52441;BME280;39611;46.062;8.950;2023-04-05T09:36:34;96464.84;;;9.28;36.77
52441;BME280;39611;46.062;8.950;2023-04-05T09:39:08;96457.44;;;9.46;36.51
52441;BME280;39611;46.062;8.950;2023-04-05T09:41:36;96454.00;;;9.45;36.69
52441;BME280;39611;46.062;8.950;2023-04-05T09:44:03;96450.03;;;9.53;37.74
52441;BME280;39611;46.062;8.950;2023-04-05T09:46:31;96443.13;;;9.67;36.57
52441;BME280;39611;46.062;8.950;2023-04-05T09:49:00;96447.09;;;9.65;36.42
52441;BME280;39611;46.062;8.950;2023-04-05T09:51:34;96448.72;;;9.55;36.69
52441;BME280;39611;46.062;8.950;2023-04-05T09:54:06;96441.56;;;9.66;37.45
52441;BME280;39611;46.062;8.950;2023-04-05T09:56:37;96444.19;;;9.71;37.33
52441;BME280;39611;46.062;8.950;2023-04-05T09:59:09;96443.66;;;9.74;35.52
52441;BME280;39611;46.062;8.950;2023-04-05T10:01:37;96430.47;;;9.59;35.56
52441;BME280;39611;46.062;8.950;2023-04-05T10:04:06;96429.19;;;9.51;35.42
52441;BME280;39611;46.062;8.950;2023-04-05T10:06:42;96429.16;;;9.67;35.97
52441;BME280;39611;46.062;8.950;2023-04-05T10:09:10;96426.50;;;9.72;36.34
52441;BME280;39611;46.062;8.950;2023-04-05T10:11:37;96428.59;;;9.80;35.88
52441;BME280;39611;46.062;8.950;2023-04-05T10:14:06;96417.22;;;9.79;36.18
52441;BME280;39611;46.062;8.950;2023-04-05T10:16:58;96422.72;;;9.98;37.03
52441;BME280;39611;46.062;8.950;2023-04-05T10:19:26;96426.66;;;10.06;36.85
52441;BME280;39611;46.062;8.950;2023-04-05T10:21:55;96427.47;;;10.06;35.42
52441;BME280;39611;46.062;8.950;2023-04-05T10:25:07;96429.81;;;10.08;34.79
52441;BME280;39611;46.062;8.950;2023-04-05T10:27:34;96418.72;;;10.06;36.01
52441;BME280;39611;46.062;8.950;2023-04-05T10:30:05;96411.38;;;9.93;34.58
52441;BME280;39611;46.062;8.950;2023-04-05T10:32:43;96419.03;;;9.94;34.94
52441;BME280;39611;46.062;8.950;2023-04-05T10:35:27;96405.56;;;9.85;35.18
52441;BME280;39611;46.062;8.950;2023-04-05T10:38:09;96406.06;;;9.98;34.60
52441;BME280;39611;46.062;8.950;2023-04-05T10:40:37;96401.50;;;10.14;36.51
52441;BME280;39611;46.062;8.950;2023-04-05T10:43:14;96402.81;;;10.21;37.07
52441;BME280;39611;46.062;8.950;2023-04-05T10:45:43;96404.91;;;10.30;37.82
52441;BME280;39611;46.062;8.950;2023-04-05T10:48:23;96406.44;;;10.41;36.83
52441;BME280;39611;46.062;8.950;2023-04-05T10:50:55;96401.72;;;10.38;36.83
52441;BME280;39611;46.062;8.950;2023-04-05T10:53:24;96400.66;;;10.34;36.00
52441;BME280;39611;46.062;8.950;2023-04-05T10:55:51;96390.09;;;10.34;34.25
52441;BME280;39611;46.062;8.950;2023-04-05T10:58:19;96392.72;;;10.34;33.92
52441;BME280;39611;46.062;8.950;2023-04-05T11:00:46;96387.69;;;10.27;34.20
52441;BME280;39611;46.062;8.950;2023-04-05T11:03:40;96389.53;;;10.37;33.75
52441;BME280;39611;46.062;8.950;2023-04-05T11:09:18;96385.56;;;10.34;33.92
52441;BME280;39611;46.062;8.950;2023-04-05T11:11:50;96378.88;;;10.52;34.70
52441;BME280;39611;46.062;8.950;2023-04-05T11:14:18;96381.44;;;10.62;35.03
52441;BME280;39611;46.062;8.950;2023-04-05T11:16:50;96374.44;;;10.82;34.48
52441;BME280;39611;46.062;8.950;2023-04-05T11:19:19;96369.66;;;10.84;35.53
52441;BME280;39611;46.062;8.950;2023-04-05T11:21:46;96369.59;;;10.89;35.47
52441;BME280;39611;46.062;8.950;2023-04-05T11:24:13;96370.88;;;10.97;33.59
52441;BME280;39611;46.062;8.950;2023-04-05T11:29:16;96360.97;;;11.07;35.80
52441;BME280;39611;46.062;8.950;2023-04-05T11:32:00;96360.44;;;11.10;34.91
52441;BME280;39611;46.062;8.950;2023-04-05T11:34:35;96357.19;;;11.19;35.84
52441;BME280;39611;46.062;8.950;2023-04-05T11:37:01;96362.94;;;11.26;35.72
52441;BME280;39611;46.062;8.950;2023-04-05T11:39:28;96359.22;;;11.27;34.20
52441;BME280;39611;46.062;8.950;2023-04-05T11:41:57;96360.78;;;11.28;33.41
52441;BME280;39611;46.062;8.950;2023-04-05T11:44:23;96353.84;;;11.37;34.69
52441;BME280;39611;46.062;8.950;2023-04-05T11:46:51;96362.72;;;11.46;34.68
52441;BME280;39611;46.062;8.950;2023-04-05T11:49:20;96352.38;;;11.50;34.79
52441;BME280;39611;46.062;8.950;2023-04-05T11:51:49;96349.44;;;11.51;35.36
52441;BME280;39611;46.062;8.950;2023-04-05T11:54:30;96349.38;;;11.56;34.34
52441;BME280;39611;46.062;8.950;2023-04-05T11:56:57;96344.13;;;11.51;33.94
52441;BME280;39611;46.062;8.950;2023-04-05T11:59:31;96343.25;;;11.61;34.85
52441;BME280;39611;46.062;8.950;2023-04-05T12:02:02;96345.84;;;11.66;34.41
52441;BME280;39611;46.062;8.950;2023-04-05T12:04:36;96339.69;;;11.71;35.51
52441;BME280;39611;46.062;8.950;2023-04-05T12:07:18;96341.25;;;11.72;34.04
52441;BME280;39611;46.062;8.950;2023-04-05T12:10:07;96336.13;;;11.56;32.97
52441;BME280;39611;46.062;8.950;2023-04-05T12:12:40;96337.22;;;11.55;34.12
52441;BME280;39611;46.062;8.950;2023-04-05T12:15:08;96331.75;;;11.71;35.70
52441;BME280;39611;46.062;8.950;2023-04-05T12:17:45;96332.84;;;11.65;33.10
52441;BME280;39611;46.062;8.950;2023-04-05T12:20:15;96323.91;;;11.61;33.47
52441;BME280;39611;46.062;8.950;2023-04-05T12:22:44;96327.28;;;11.66;34.49
52441;BME280;39611;46.062;8.950;2023-04-05T12:25:11;96331.28;;;11.64;33.52
52441;BME280;39611;46.062;8.950;2023-04-05T12:27:38;96318.56;;;11.66;33.80
52441;BME280;39611;46.062;8.950;2023-04-05T12:30:20;96324.31;;;11.73;33.01
52441;BME280;39611;46.062;8.950;2023-04-05T12:32:50;96324.44;;;11.63;33.10
52441;BME280;39611;46.062;8.950;2023-04-05T12:35:21;96310.09;;;11.64;33.79
52441;BME280;39611;46.062;8.950;2023-04-05T12:38:01;96313.94;;;11.52;32.39
52441;BME280;39611;46.062;8.950;2023-04-05T12:40:28;96301.06;;;11.65;34.88
52441;BME280;39611;46.062;8.950;2023-04-05T12:43:06;96312.75;;;11.64;33.62
52441;BME280;39611;46.062;8.950;2023-04-05T12:45:33;96303.22;;;11.63;35.13
52441;BME280;39611;46.062;8.950;2023-04-05T12:48:14;96293.75;;;11.56;33.50
52441;BME280;39611;46.062;8.950;2023-04-05T12:50:45;96302.16;;;11.64;35.11
52441;BME280;39611;46.062;8.950;2023-04-05T12:55:51;96298.00;;;11.57;34.00
52441;BME280;39611;46.062;8.950;2023-04-05T12:58:19;96285.16;;;11.65;33.33
52441;BME280;39611;46.062;8.950;2023-04-05T13:00:46;96286.75;;;11.66;33.63
52441;BME280;39611;46.062;8.950;2023-04-05T13:03:18;96293.06;;;11.70;33.79
52441;BME280;39611;46.062;8.950;2023-04-05T13:05:46;96281.69;;;11.69;34.36
52441;BME280;39611;46.062;8.950;2023-04-05T13:08:16;96279.53;;;11.71;34.94
52441;BME280;39611;46.062;8.950;2023-04-05T13:10:44;96279.25;;;11.73;33.61
52441;BME280;39611;46.062;8.950;2023-04-05T13:13:16;96275.03;;;11.72;32.44
52441;BME280;39611;46.062;8.950;2023-04-05T13:15:43;96269.66;;;11.77;33.86
52441;BME280;39611;46.062;8.950;2023-04-05T13:18:11;96272.88;;;11.74;33.44
52441;BME280;39611;46.062;8.950;2023-04-05T13:20:44;96264.41;;;11.72;34.67
52441;BME280;39611;46.062;8.950;2023-04-05T13:23:11;96257.50;;;11.76;34.06
52441;BME280;39611;46.062;8.950;2023-04-05T13:25:39;96262.94;;;11.85;34.78
52441;BME280;39611;46.062;8.950;2023-04-05T13:28:06;96257.09;;;11.88;34.68
52441;BME280;39611;46.062;8.950;2023-04-05T13:30:33;96251.53;;;11.84;34.52